createdAt,value
2018-03-17T00:01:54.894Z,2.73
2018-03-17T00:04:22.514Z,2.77
2018-03-17T00:06:50.077Z,2.76
2018-03-17T00:09:18.979Z,2.77
2018-03-17T00:11:46.660Z,2.80
2018-03-17T00:14:14.241Z,2.88
2018-03-17T00:16:41.827Z,2.91
2018-03-17T00:19:10.702Z,2.92
2018-03-17T00:21:38.262Z,2.94
2018-03-17T00:24:05.818Z,2.95
2018-03-17T00:26:33.449Z,3.02
2018-03-17T00:29:01.008Z,3.08
2018-03-17T00:31:28.579Z,3.17
2018-03-17T00:33:56.134Z,3.18
2018-03-17T00:36:23.709Z,3.17
2018-03-17T00:38:51.358Z,3.22
2018-03-17T00:41:19.292Z,3.25
2018-03-17T00:43:46.952Z,3.19
2018-03-17T00:46:14.529Z,3.17
2018-03-17T00:48:42.123Z,3.16
2018-03-17T00:51:09.702Z,3.20
2018-03-17T00:53:37.265Z,3.25
2018-03-17T00:56:04.827Z,3.33
2018-03-17T00:58:33.753Z,3.37
2018-03-17T01:01:01.338Z,3.40
2018-03-17T01:03:29.783Z,3.46
2018-03-17T01:08:31.298Z,3.67
2018-03-17T01:10:58.876Z,3.72
2018-03-17T01:13:26.420Z,3.69
2018-03-17T01:15:54.036Z,3.66
2018-03-17T01:18:21.621Z,3.75
2018-03-17T01:20:49.190Z,3.69
2018-03-17T01:23:16.775Z,3.67
2018-03-17T01:25:44.324Z,3.57
2018-03-17T01:28:11.914Z,3.50
2018-03-17T01:30:39.490Z,3.47
2018-03-17T01:33:07.180Z,3.51
2018-03-17T01:35:34.777Z,3.49
2018-03-17T01:38:02.390Z,3.52
2018-03-17T01:40:29.955Z,3.43
2018-03-17T01:42:57.549Z,3.29
2018-03-17T01:45:25.241Z,3.21
2018-03-17T01:47:52.842Z,3.26
2018-03-17T01:50:20.428Z,3.21
2018-03-17T01:52:48.017Z,3.12
2018-03-17T01:55:16.901Z,3.07
2018-03-17T01:57:44.467Z,3.04
2018-03-17T02:00:12.153Z,3.10
2018-03-17T02:02:39.713Z,3.11
2018-03-17T02:05:09.119Z,3.14
2018-03-17T02:07:36.932Z,3.17
2018-03-17T02:10:04.501Z,3.26
2018-03-17T02:12:32.067Z,3.22
2018-03-17T02:14:59.716Z,3.23
2018-03-17T02:17:27.257Z,3.25
2018-03-17T02:19:54.826Z,3.26
2018-03-17T02:22:22.447Z,3.30
2018-03-17T02:24:50.009Z,3.37
2018-03-17T02:27:18.100Z,3.44
2018-03-17T02:29:45.734Z,3.59
2018-03-17T02:32:13.296Z,3.63
2018-03-17T02:34:40.899Z,3.61
2018-03-17T02:37:08.870Z,3.57
2018-03-17T02:39:36.455Z,3.59
2018-03-17T02:42:04.082Z,3.45
2018-03-17T02:44:31.642Z,3.37
2018-03-17T02:46:59.200Z,3.38
2018-03-17T02:49:26.787Z,3.35
2018-03-17T02:51:54.365Z,3.32
2018-03-17T02:54:21.956Z,3.31
2018-03-17T02:56:49.507Z,3.36
2018-03-17T02:59:17.091Z,3.34
2018-03-17T03:01:44.673Z,3.39
2018-03-17T03:04:12.656Z,3.43
2018-03-17T03:06:40.239Z,3.52
2018-03-17T03:09:08.623Z,3.37
2018-03-17T03:11:36.212Z,3.64
2018-03-17T03:14:03.814Z,3.72
2018-03-17T03:16:31.393Z,3.70
2018-03-17T03:19:04.284Z,3.88
2018-03-17T03:21:32.943Z,4.02
2018-03-17T03:24:00.491Z,4.09
2018-03-17T03:26:28.073Z,4.10
2018-03-17T03:28:56.021Z,4.05
2018-03-17T03:31:40.321Z,4.04
2018-03-17T03:34:11.404Z,4.04
2018-03-17T03:36:38.993Z,3.95
2018-03-17T03:39:07.226Z,3.93
2018-03-17T03:41:34.850Z,3.86
2018-03-17T03:44:02.373Z,3.82
2018-03-17T03:46:29.952Z,3.75
2018-03-17T03:48:57.560Z,3.76
2018-03-17T03:51:25.202Z,3.72
2018-03-17T03:53:55.433Z,3.66
2018-03-17T03:56:23.584Z,3.84
2018-03-17T03:58:51.200Z,3.83
2018-03-17T04:01:18.806Z,3.76
2018-03-17T04:03:46.385Z,3.74
2018-03-17T04:06:14.092Z,3.69
2018-03-17T04:08:41.655Z,3.71
2018-03-17T04:11:09.972Z,3.92
2018-03-17T04:13:37.553Z,3.76
2018-03-17T04:16:05.121Z,3.76
2018-03-17T04:18:32.679Z,3.80
2018-03-17T04:23:51.271Z,3.83
2018-03-17T04:26:18.934Z,3.83
2018-03-17T04:28:46.695Z,3.80
2018-03-17T04:31:14.254Z,3.76
2018-03-17T04:33:41.828Z,3.66
2018-03-17T04:36:09.401Z,3.64
2018-03-17T04:41:10.204Z,3.44
2018-03-17T04:43:38.338Z,3.38
2018-03-17T04:46:05.920Z,3.27
2018-03-17T04:48:33.481Z,3.18
2018-03-17T04:51:01.060Z,3.08
2018-03-17T04:53:28.954Z,3.07
2018-03-17T04:55:56.531Z,2.90
2018-03-17T04:58:24.116Z,2.86
2018-03-17T05:00:51.689Z,2.84
2018-03-17T05:03:19.451Z,2.77
2018-03-17T05:05:47.055Z,2.76
2018-03-17T05:08:14.835Z,2.77
2018-03-17T05:10:42.446Z,2.74
2018-03-17T05:13:10.766Z,2.68
2018-03-17T05:15:38.573Z,2.60
2018-03-17T05:18:06.341Z,2.55
2018-03-17T05:20:34.173Z,2.64
2018-03-17T05:23:02.518Z,2.51
2018-03-17T05:25:30.750Z,2.52
2018-03-17T05:27:58.311Z,2.46
2018-03-17T05:30:25.912Z,2.42
2018-03-17T05:32:53.499Z,2.30
2018-03-17T05:35:21.067Z,2.28
2018-03-17T05:37:48.646Z,2.20
2018-03-17T05:40:16.250Z,2.22
2018-03-17T05:42:43.853Z,2.24
2018-03-17T05:45:11.952Z,2.25
2018-03-17T05:47:39.533Z,2.20
2018-03-17T05:50:07.154Z,2.25
2018-03-17T05:52:34.738Z,2.26
2018-03-17T05:55:02.319Z,2.36
2018-03-17T05:57:30.126Z,2.32
2018-03-17T05:59:57.690Z,2.29
2018-03-17T06:02:26.628Z,2.33
2018-03-17T06:04:54.196Z,2.29
2018-03-17T06:07:21.760Z,2.24
2018-03-17T06:09:49.363Z,2.22
2018-03-17T06:12:16.921Z,2.20
2018-03-17T06:14:44.499Z,2.14
2018-03-17T06:17:12.920Z,2.12
2018-03-17T06:19:40.531Z,2.09
2018-03-17T06:22:08.148Z,1.98
2018-03-17T06:24:35.713Z,1.91
2018-03-17T06:27:03.560Z,1.91
2018-03-17T06:29:32.702Z,1.98
2018-03-17T06:32:00.273Z,1.98
2018-03-17T06:34:27.834Z,1.96
2018-03-17T06:36:55.401Z,1.94
2018-03-17T06:39:23.495Z,1.87
2018-03-17T06:41:51.049Z,1.72
2018-03-17T06:44:18.615Z,1.68
2018-03-17T06:46:46.210Z,1.57
2018-03-17T06:49:13.870Z,1.56
2018-03-17T06:51:42.342Z,1.57
2018-03-17T06:54:10.058Z,1.49
2018-03-17T06:56:37.619Z,1.47
2018-03-17T06:59:05.201Z,1.47
2018-03-17T07:01:35.862Z,1.44
2018-03-17T07:04:03.689Z,1.47
2018-03-17T07:06:31.243Z,1.35
2018-03-17T07:08:58.871Z,1.44
2018-03-17T07:11:26.716Z,1.45
2018-03-17T07:13:54.280Z,1.42
2018-03-17T07:16:21.870Z,1.48
2018-03-17T07:18:49.475Z,1.40
2018-03-17T07:21:17.041Z,1.36
2018-03-17T07:23:44.888Z,1.37
2018-03-17T07:26:12.521Z,1.34
2018-03-17T07:28:40.243Z,1.34
2018-03-17T07:31:08.354Z,1.27
2018-03-17T07:33:35.942Z,1.20
2018-03-17T07:36:04.874Z,1.20
2018-03-17T07:38:33.785Z,1.20
2018-03-17T07:41:01.343Z,1.11
2018-03-17T07:43:29.459Z,1.19
2018-03-17T07:45:57.121Z,1.31
2018-03-17T07:48:24.681Z,1.31
2018-03-17T07:50:52.250Z,1.30
2018-03-17T07:53:22.158Z,1.29
2018-03-17T07:55:49.788Z,1.14
2018-03-17T07:58:17.350Z,1.22
2018-03-17T08:00:44.941Z,1.41
2018-03-17T08:03:13.907Z,1.39
2018-03-17T08:05:41.491Z,1.43
2018-03-17T08:08:09.232Z,1.55
2018-03-17T08:10:36.805Z,1.49
2018-03-17T08:13:04.463Z,1.29
2018-03-17T08:15:32.802Z,1.21
2018-03-17T08:18:00.371Z,1.04
2018-03-17T08:20:29.261Z,1.21
2018-03-17T08:22:56.850Z,1.25
2018-03-17T08:25:24.615Z,1.13
2018-03-17T08:27:52.199Z,1.05
2018-03-17T08:30:19.998Z,1.07
2018-03-17T08:32:47.568Z,1.12
2018-03-17T08:35:15.136Z,1.14
2018-03-17T08:37:42.705Z,1.14
2018-03-17T08:40:10.281Z,1.19
2018-03-17T08:42:37.847Z,1.26
2018-03-17T08:45:05.656Z,1.13
2018-03-17T08:47:33.227Z,1.15
2018-03-17T08:50:00.805Z,1.23
2018-03-17T08:52:28.399Z,1.11
2018-03-17T08:54:55.978Z,1.13
2018-03-17T08:57:23.578Z,1.17
2018-03-17T08:59:51.196Z,1.16
2018-03-17T09:02:18.763Z,1.06
2018-03-17T09:04:46.314Z,1.06
2018-03-17T09:07:13.870Z,1.05
2018-03-17T09:09:41.491Z,1.20
2018-03-17T09:12:09.138Z,1.28
2018-03-17T09:14:36.664Z,1.38
2018-03-17T09:17:04.289Z,1.41
2018-03-17T09:19:31.864Z,1.42
2018-03-17T09:21:59.430Z,1.16
2018-03-17T09:24:27.335Z,0.97
2018-03-17T09:26:54.912Z,0.96
2018-03-17T09:29:24.232Z,1.07
2018-03-17T09:31:51.822Z,1.09
2018-03-17T09:34:19.448Z,1.12
2018-03-17T09:36:47.006Z,1.05
2018-03-17T09:39:15.454Z,1.06
2018-03-17T09:41:43.043Z,0.97
2018-03-17T09:44:10.834Z,0.90
2018-03-17T09:46:38.412Z,0.88
2018-03-17T09:49:06.397Z,0.98
2018-03-17T09:51:33.958Z,1.02
2018-03-17T09:54:01.536Z,1.06
2018-03-17T09:56:29.133Z,1.02
2018-03-17T09:58:56.764Z,0.98
2018-03-17T10:01:25.207Z,0.94
2018-03-17T10:03:52.770Z,0.99
2018-03-17T10:06:20.370Z,0.93
2018-03-17T10:08:47.920Z,0.98
2018-03-17T10:11:15.483Z,0.91
2018-03-17T10:13:43.061Z,0.96
2018-03-17T10:16:10.632Z,0.97
2018-03-17T10:18:38.245Z,0.95
2018-03-17T10:21:06.203Z,0.82
2018-03-17T10:23:33.796Z,0.85
2018-03-17T10:26:01.369Z,0.86
2018-03-17T10:28:29.025Z,0.96
2018-03-17T10:30:56.607Z,0.90
2018-03-17T10:33:24.263Z,0.92
2018-03-17T10:35:52.048Z,0.99
2018-03-17T10:38:19.662Z,1.00
2018-03-17T10:40:47.300Z,0.96
2018-03-17T10:43:14.915Z,0.96
2018-03-17T10:45:42.489Z,0.95
2018-03-17T10:48:10.269Z,0.94
2018-03-17T10:50:37.844Z,0.94
2018-03-17T10:53:05.481Z,0.73
2018-03-17T10:55:33.203Z,0.81
2018-03-17T10:58:00.794Z,0.86
2018-03-17T11:00:28.394Z,0.93
2018-03-17T11:02:56.008Z,1.01
2018-03-17T11:05:26.473Z,1.18
2018-03-17T11:07:54.134Z,1.15
2018-03-17T11:10:27.634Z,1.13
2018-03-17T11:12:55.221Z,1.13
2018-03-17T11:15:25.685Z,1.12
2018-03-17T11:17:53.598Z,1.25
2018-03-17T11:20:21.391Z,1.13
2018-03-17T11:22:48.960Z,1.07
2018-03-17T11:25:16.595Z,0.96
2018-03-17T11:27:48.812Z,0.93
2018-03-17T11:30:16.665Z,0.85
2018-03-17T11:32:44.297Z,0.69
2018-03-17T11:35:16.340Z,0.61
2018-03-17T11:37:44.632Z,0.68
2018-03-17T11:40:12.197Z,0.67
2018-03-17T11:42:39.772Z,0.71
2018-03-17T11:45:08.383Z,0.30
2018-03-17T11:47:38.287Z,0.46
2018-03-17T11:50:06.671Z,0.40
2018-03-17T11:52:34.243Z,0.45
2018-03-17T11:55:01.858Z,0.40
2018-03-17T11:57:29.753Z,0.41
2018-03-17T11:59:57.309Z,0.42
2018-03-17T12:02:24.885Z,0.48
2018-03-17T12:04:52.473Z,0.57
2018-03-17T12:07:20.086Z,0.53
2018-03-17T12:09:47.709Z,0.54
2018-03-17T12:12:15.426Z,0.60
2018-03-17T12:14:42.989Z,0.56
2018-03-17T12:17:10.896Z,0.57
2018-03-17T12:19:38.661Z,0.61
2018-03-17T12:22:06.225Z,0.65
2018-03-17T12:24:33.803Z,0.73
2018-03-17T12:27:01.351Z,0.75
2018-03-17T12:29:30.666Z,0.80
2018-03-17T12:31:58.254Z,0.83
2018-03-17T12:34:25.809Z,0.93
2018-03-17T12:36:53.430Z,0.93
2018-03-17T12:39:21.012Z,0.85
2018-03-17T12:41:48.559Z,0.86
2018-03-17T12:44:16.113Z,0.95
2018-03-17T12:46:43.691Z,0.91
2018-03-17T12:49:12.187Z,0.88
2018-03-17T12:51:39.790Z,0.87
2018-03-17T12:54:07.345Z,0.81
2018-03-17T12:56:34.936Z,0.78
2018-03-17T12:59:02.466Z,0.73
2018-03-17T13:01:30.060Z,0.71
2018-03-17T13:03:57.597Z,0.61
2018-03-17T13:06:27.956Z,0.54
2018-03-17T13:08:55.464Z,0.47
2018-03-17T13:11:23.065Z,0.56
2018-03-17T13:13:50.654Z,0.60
2018-03-17T13:16:18.216Z,0.58
2018-03-17T13:18:45.824Z,0.35
2018-03-17T13:21:13.624Z,0.42
2018-03-17T13:23:41.950Z,0.57
2018-03-17T13:26:09.877Z,0.64
2018-03-17T13:28:37.448Z,0.48
2018-03-17T13:31:05.180Z,0.51
2018-03-17T13:33:32.787Z,0.57
2018-03-17T13:36:12.061Z,0.61
2018-03-17T13:38:39.663Z,0.59
2018-03-17T13:41:07.702Z,0.54
2018-03-17T13:43:35.349Z,0.50
2018-03-17T13:46:02.909Z,0.44
2018-03-17T13:48:30.520Z,0.44
2018-03-17T13:50:58.143Z,0.38
2018-03-17T13:53:25.707Z,0.44
2018-03-17T13:55:53.281Z,0.45
2018-03-17T13:58:22.180Z,0.42
2018-03-17T14:00:49.733Z,0.37
2018-03-17T14:03:17.994Z,0.36
2018-03-17T14:05:45.906Z,0.14
2018-03-17T14:08:13.468Z,0.17
2018-03-17T14:10:41.029Z,0.27
2018-03-17T14:13:09.358Z,0.18
2018-03-17T14:15:37.742Z,0.12
2018-03-17T14:18:05.660Z,0.00
2018-03-17T14:20:33.237Z,-0.01
2018-03-17T14:23:00.874Z,-0.02
2018-03-17T14:25:28.502Z,0.09
2018-03-17T14:27:56.084Z,0.10
2018-03-17T14:30:23.683Z,0.03
2018-03-17T14:32:51.287Z,0.10
2018-03-17T14:35:19.070Z,0.08
2018-03-17T14:37:46.675Z,0.05
2018-03-17T14:40:14.254Z,0.00
2018-03-17T14:42:41.875Z,-0.04
2018-03-17T14:45:09.643Z,-0.01
2018-03-17T14:47:37.220Z,-0.02
2018-03-17T14:50:04.814Z,-0.01
2018-03-17T14:52:32.386Z,-0.07
2018-03-17T14:55:00.011Z,-0.12
2018-03-17T14:57:28.632Z,-0.28
2018-03-17T14:59:56.234Z,-0.25
2018-03-17T15:02:23.847Z,-0.30
2018-03-17T15:04:51.440Z,-0.19
2018-03-17T15:07:20.044Z,-0.22
2018-03-17T15:09:49.508Z,-0.17
2018-03-17T15:12:17.183Z,-0.13
2018-03-17T15:14:44.837Z,-0.12
2018-03-17T15:17:12.714Z,-0.14
2018-03-17T15:19:40.298Z,-0.03
2018-03-17T15:22:07.848Z,0.02
2018-03-17T15:24:38.294Z,0.05
2018-03-17T15:27:07.618Z,-0.39
2018-03-17T15:29:35.271Z,-0.51
2018-03-17T15:32:07.567Z,-0.40
2018-03-17T15:34:35.390Z,-0.48
2018-03-17T15:37:02.985Z,-0.41
2018-03-17T15:39:33.025Z,-0.51
2018-03-17T15:42:00.634Z,-0.61
2018-03-17T15:44:28.376Z,-0.55
2018-03-17T15:46:56.549Z,-0.47
2018-03-17T15:49:24.594Z,-0.53
2018-03-17T15:51:52.200Z,-0.41
2018-03-17T15:54:19.822Z,-0.41
2018-03-17T15:56:54.309Z,-0.44
2018-03-17T15:59:21.908Z,-0.41
2018-03-17T16:01:50.126Z,-0.36
2018-03-17T16:04:17.747Z,-0.33
2018-03-17T16:06:45.341Z,-0.40
2018-03-17T16:09:13.313Z,-0.35
2018-03-17T16:11:40.883Z,-0.43
2018-03-17T16:14:08.638Z,-0.36
2018-03-17T16:16:36.222Z,-0.35
2018-03-17T16:19:03.856Z,-0.48
2018-03-17T16:21:31.635Z,-0.56
2018-03-17T16:23:59.265Z,-0.44
2018-03-17T16:26:26.848Z,-0.43
2018-03-17T16:28:54.433Z,-0.51
2018-03-17T16:31:22.045Z,-0.51
2018-03-17T16:33:49.626Z,-0.45
2018-03-17T16:36:17.194Z,-0.49
2018-03-17T16:38:44.790Z,-0.56
2018-03-17T16:41:12.964Z,-0.54
2018-03-17T16:43:40.535Z,-0.48
2018-03-17T16:46:08.231Z,-0.50
2018-03-17T16:48:38.249Z,-0.49
2018-03-17T16:51:06.557Z,-0.53
2018-03-17T16:53:34.175Z,-0.56
2018-03-17T16:56:01.755Z,-0.58
2018-03-17T16:58:29.368Z,-0.59
2018-03-17T17:00:56.956Z,-0.62
2018-03-17T17:03:25.912Z,-0.72
2018-03-17T17:05:53.677Z,-0.75
2018-03-17T17:08:21.312Z,-0.71
2018-03-17T17:10:48.928Z,-0.69
2018-03-17T17:13:16.523Z,-0.84
2018-03-17T17:15:44.156Z,-0.94
2018-03-17T17:18:11.747Z,-0.86
2018-03-17T17:20:39.413Z,-0.91
2018-03-17T17:23:07.388Z,-0.93
2018-03-17T17:25:35.043Z,-0.96
2018-03-17T17:28:02.656Z,-1.03
2018-03-17T17:30:30.245Z,-0.97
2018-03-17T17:32:57.864Z,-0.97
2018-03-17T17:35:25.956Z,-1.05
2018-03-17T17:37:53.739Z,-1.05
2018-03-17T17:40:21.308Z,-0.98
2018-03-17T17:42:48.954Z,-0.97
2018-03-17T17:45:16.624Z,-1.00
2018-03-17T17:47:45.196Z,-1.11
2018-03-17T17:50:15.729Z,-1.10
2018-03-17T17:52:47.608Z,-1.05
2018-03-17T17:55:15.401Z,-1.04
2018-03-17T17:57:43.098Z,-1.08
2018-03-17T18:00:10.669Z,-1.10
2018-03-17T18:02:38.254Z,-1.06
2018-03-17T18:05:05.843Z,-1.05
2018-03-17T18:07:33.434Z,-1.17
2018-03-17T18:10:01.012Z,-1.16
2018-03-17T18:12:28.591Z,-1.43
2018-03-17T18:14:56.184Z,-1.35
2018-03-17T18:17:23.784Z,-1.32
2018-03-17T18:19:51.445Z,-1.33
2018-03-17T18:22:19.421Z,-1.39
2018-03-17T18:24:47.080Z,-1.41
2018-03-17T18:27:14.652Z,-1.45
2018-03-17T18:29:42.254Z,-1.55
2018-03-17T18:32:10.264Z,-1.61
2018-03-17T18:34:37.854Z,-1.52
2018-03-17T18:37:05.875Z,-1.53
2018-03-17T18:39:33.464Z,-1.62
2018-03-17T18:42:01.095Z,-1.60
2018-03-17T18:44:28.665Z,-1.49
2018-03-17T18:46:56.300Z,-1.53
2018-03-17T18:49:24.918Z,-1.61
2018-03-17T18:51:52.624Z,-1.66
2018-03-17T18:54:20.227Z,-1.87
2018-03-17T18:56:47.834Z,-1.83
2018-03-17T18:59:15.453Z,-1.72
2018-03-17T19:01:43.304Z,-1.68
2018-03-17T19:04:10.883Z,-1.71
2018-03-17T19:06:39.063Z,-1.78
2018-03-17T19:09:06.845Z,-1.84
2018-03-17T19:11:34.514Z,-1.89
2018-03-17T19:14:02.141Z,-1.93
2018-03-17T19:16:29.702Z,-1.92
2018-03-17T19:18:58.809Z,-2.07
2018-03-17T19:21:26.760Z,-2.05
2018-03-17T19:23:58.495Z,-2.05
2018-03-17T19:26:26.097Z,-2.03
2018-03-17T19:28:53.636Z,-2.12
2018-03-17T19:31:21.257Z,-2.12
2018-03-17T19:33:48.869Z,-2.12
2018-03-17T19:36:18.972Z,-2.16
2018-03-17T19:38:46.711Z,-2.19
2018-03-17T19:41:17.002Z,-2.24
2018-03-17T19:43:45.343Z,-2.25
2018-03-17T19:46:12.926Z,-2.23
2018-03-17T19:48:41.397Z,-2.19
2018-03-17T19:51:09.603Z,-2.20
2018-03-17T19:53:38.327Z,-2.23
2018-03-17T19:56:14.288Z,-2.28
2018-03-17T19:58:43.971Z,-2.32
2018-03-17T20:01:12.460Z,-2.50
2018-03-17T20:03:40.035Z,-2.51
2018-03-17T20:06:07.618Z,-2.50
2018-03-17T20:08:35.190Z,-2.56
2018-03-17T20:11:02.806Z,-2.53
2018-03-17T20:13:30.608Z,-2.54
2018-03-17T20:15:58.181Z,-2.49
2018-03-17T20:18:25.821Z,-2.65
2018-03-17T20:20:53.411Z,-2.61
2018-03-17T20:23:20.967Z,-2.57
2018-03-17T20:25:48.793Z,-2.56
2018-03-17T20:28:16.366Z,-2.51
2018-03-17T20:30:43.950Z,-2.51
2018-03-17T20:33:11.923Z,-2.53
2018-03-17T20:35:39.546Z,-2.57
2018-03-17T20:38:07.109Z,-2.46
2018-03-17T20:40:34.710Z,-2.43
2018-03-17T20:43:02.289Z,-2.46
2018-03-17T20:45:30.110Z,-2.51
2018-03-17T20:47:57.747Z,-2.54
2018-03-17T20:50:25.337Z,-2.53
2018-03-17T20:52:52.938Z,-2.58
2018-03-17T20:55:20.603Z,-2.59
2018-03-17T20:57:48.220Z,-2.65
2018-03-17T21:00:15.922Z,-2.72
2018-03-17T21:02:43.538Z,-2.69
2018-03-17T21:05:12.587Z,-2.65
2018-03-17T21:07:40.405Z,-2.67
2018-03-17T21:10:07.995Z,-2.62
2018-03-17T21:12:35.594Z,-2.59
2018-03-17T21:15:03.213Z,-2.63
2018-03-17T21:17:31.268Z,-2.70
2018-03-17T21:19:58.872Z,-2.70
2018-03-17T21:22:26.521Z,-2.80
2018-03-17T21:24:54.132Z,-2.87
2018-03-17T21:27:21.709Z,-2.91
2018-03-17T21:29:49.450Z,-2.85
2018-03-17T21:32:17.016Z,-2.89
2018-03-17T21:34:44.656Z,-2.94
2018-03-17T21:37:12.988Z,-3.01
2018-03-17T21:39:40.617Z,-3.02
2018-03-17T21:42:08.320Z,-3.06
2018-03-17T21:44:35.958Z,-3.05
2018-03-17T21:47:03.779Z,-3.05
2018-03-17T21:49:31.702Z,-3.13
2018-03-17T21:51:59.329Z,-3.14
2018-03-17T21:54:26.978Z,-3.15
2018-03-17T21:56:54.718Z,-3.22
2018-03-17T21:59:22.338Z,-3.20
2018-03-17T22:01:51.279Z,-3.23
2018-03-17T22:04:19.050Z,-3.21
2018-03-17T22:06:46.753Z,-3.30
2018-03-17T22:09:14.660Z,-3.45
2018-03-17T22:11:42.308Z,-3.49
2018-03-17T22:14:10.403Z,-3.47
2018-03-17T22:16:38.224Z,-3.51
2018-03-17T22:19:07.115Z,-3.52
2018-03-17T22:21:35.039Z,-3.53
2018-03-17T22:24:02.604Z,-3.67
2018-03-17T22:26:30.213Z,-3.62
2018-03-17T22:28:57.822Z,-3.58
2018-03-17T22:31:25.518Z,-3.70
2018-03-17T22:33:53.310Z,-3.73
2018-03-17T22:36:20.959Z,-3.77
2018-03-17T22:38:48.556Z,-3.73
2018-03-17T22:41:17.422Z,-3.71
2018-03-17T22:43:45.175Z,-3.78
2018-03-17T22:46:12.872Z,-3.81
2018-03-17T22:48:40.786Z,-3.75
2018-03-17T22:51:08.510Z,-3.81
2018-03-17T22:53:36.398Z,-3.82
2018-03-17T22:56:03.975Z,-3.72
2018-03-17T22:58:31.596Z,-3.82
2018-03-17T23:00:59.216Z,-3.89
2018-03-17T23:03:26.903Z,-3.88
2018-03-17T23:05:54.517Z,-3.93
2018-03-17T23:08:23.002Z,-3.92
2018-03-17T23:10:50.783Z,-3.85
2018-03-17T23:13:18.845Z,-3.79
2018-03-17T23:15:46.433Z,-3.88
2018-03-17T23:18:14.039Z,-4.15
2018-03-17T23:20:43.688Z,-4.05
2018-03-17T23:23:12.312Z,-4.22
2018-03-17T23:25:39.887Z,-4.24
2018-03-17T23:28:07.492Z,-4.23
2018-03-17T23:30:35.116Z,-4.32
2018-03-17T23:33:02.756Z,-4.37
2018-03-17T23:35:30.769Z,-4.53
2018-03-17T23:37:58.350Z,-4.46
2018-03-17T23:40:29.213Z,-4.42
2018-03-17T23:42:56.871Z,-4.55
2018-03-17T23:45:24.610Z,-4.41
2018-03-17T23:47:52.235Z,-4.33
2018-03-17T23:50:20.016Z,-4.37
2018-03-17T23:52:49.223Z,-4.36
2018-03-17T23:55:18.843Z,-4.45
2018-03-17T23:57:46.421Z,-4.49
